Terminal Aerodrome Forecast
Issued by NWS Nashville, TN

Home | Current Version | Previous Version | Text Only | Print | Product List | Glossary On
Versions: 1 2 3 4 5 6 7 8 9 10 11 12 13 14 15 16 17 18
382
FTUS44 KOHX 232320
TAFCSV
TAF
KCSV 232320Z 2400/2424 22006KT P6SM SCT050
     FM240100 26005KT P6SM VCTS SCT040CB
     FM240600 26003KT 5SM BR SCT050 BKN150
     FM241000 00000KT 2SM BR SCT150
     FM241300 28005KT P6SM BKN250=

USA.gov is the U.S. government's official web portal to all federal, state and local government web resources and services.